createdAt,value
2018-09-14T00:00:39.960Z,82.93
2018-09-14T00:03:08.610Z,81.08
2018-09-14T00:05:37.014Z,83.77
2018-09-14T00:08:05.774Z,83.28
2018-09-14T00:10:34.491Z,82.48
2018-09-14T00:13:03.162Z,82.67
2018-09-14T00:15:31.607Z,84.45
2018-09-14T00:18:00.296Z,82.87
2018-09-14T00:20:28.734Z,82.83
2018-09-14T00:22:57.231Z,84.33
2018-09-14T00:25:25.779Z,83.51
2018-09-14T00:27:54.186Z,82.73
2018-09-14T00:30:22.690Z,83.17
2018-09-14T00:32:51.171Z,82.27
2018-09-14T00:35:19.654Z,83.36
2018-09-14T00:37:48.085Z,81.75
2018-09-14T00:40:16.838Z,83.70
2018-09-14T00:42:45.378Z,83.46
2018-09-14T00:45:13.838Z,82.37
2018-09-14T00:47:42.274Z,83.51
2018-09-14T00:50:10.679Z,83.48
2018-09-14T00:52:39.155Z,83.18
2018-09-14T00:55:07.743Z,82.67
2018-09-14T00:57:36.210Z,82.93
2018-09-14T01:00:05.073Z,82.24
2018-09-14T01:02:33.559Z,83.63
2018-09-14T01:05:01.992Z,82.84
2018-09-14T01:07:30.550Z,82.54
2018-09-14T01:09:59.011Z,82.83
2018-09-14T01:12:27.446Z,82.76
2018-09-14T01:14:55.962Z,82.00
2018-09-14T01:17:24.579Z,83.46
2018-09-14T01:19:53.354Z,83.01
2018-09-14T01:22:21.882Z,81.63
2018-09-14T01:24:50.450Z,82.38
2018-09-14T01:27:18.939Z,81.99
2018-09-14T01:29:47.357Z,82.43
2018-09-14T01:32:16.015Z,82.63
2018-09-14T01:34:44.786Z,82.36
2018-09-14T01:37:13.203Z,83.05
2018-09-14T01:39:41.678Z,81.44
2018-09-14T01:42:10.168Z,81.18
2018-09-14T01:44:38.634Z,83.07
2018-09-14T01:47:07.311Z,82.86
2018-09-14T01:49:35.835Z,81.80
2018-09-14T01:52:04.291Z,81.82
2018-09-14T01:54:33.036Z,82.47
2018-09-14T01:57:01.507Z,81.70
2018-09-14T01:59:29.987Z,82.21
2018-09-14T02:01:58.762Z,82.51
2018-09-14T02:04:27.195Z,82.92
2018-09-14T02:06:55.674Z,81.97
2018-09-14T02:09:24.566Z,81.14
2018-09-14T02:11:53.021Z,81.46
2018-09-14T02:14:21.446Z,80.81
2018-09-14T02:16:49.882Z,81.37
2018-09-14T02:19:18.298Z,81.06
2018-09-14T02:21:46.748Z,80.24
2018-09-14T02:24:15.314Z,80.07
2018-09-14T02:26:43.838Z,80.50
2018-09-14T02:29:12.335Z,78.85
2018-09-14T02:31:40.794Z,80.27
2018-09-14T02:34:09.244Z,79.69
2018-09-14T02:36:37.739Z,80.16
2018-09-14T02:39:07.891Z,79.98
2018-09-14T02:41:36.347Z,80.14
2018-09-14T02:44:04.858Z,79.54
2018-09-14T02:46:33.559Z,78.13
2018-09-14T02:49:02.032Z,80.03
2018-09-14T02:51:30.531Z,80.27
2018-09-14T02:53:59.019Z,80.29
2018-09-14T02:56:27.467Z,81.43
2018-09-14T02:58:55.864Z,80.66
2018-09-14T03:01:24.472Z,81.17
2018-09-14T03:03:52.893Z,81.84
2018-09-14T03:06:21.408Z,82.58
2018-09-14T03:08:50.273Z,82.13
2018-09-14T03:11:18.774Z,81.95
2018-09-14T03:13:47.302Z,81.72
2018-09-14T03:16:16.100Z,79.43
2018-09-14T03:18:44.811Z,81.19
2018-09-14T03:21:13.274Z,81.22
2018-09-14T03:23:42.442Z,81.54
2018-09-14T03:26:11.001Z,79.87
2018-09-14T03:28:39.419Z,81.14
2018-09-14T03:31:08.140Z,80.99
2018-09-14T03:33:36.589Z,81.67
2018-09-14T03:36:05.187Z,83.10
2018-09-14T03:38:33.719Z,81.27
2018-09-14T03:41:02.179Z,80.37
2018-09-14T03:43:30.610Z,80.79
2018-09-14T03:45:59.258Z,82.51
2018-09-14T03:48:27.670Z,82.35
2018-09-14T03:50:56.051Z,83.82
2018-09-14T03:53:24.552Z,83.81
2018-09-14T03:55:53.222Z,84.00
2018-09-14T03:58:21.651Z,83.21
2018-09-14T04:00:50.173Z,82.16
2018-09-14T04:03:18.595Z,82.99
2018-09-14T04:05:47.187Z,83.71
2018-09-14T04:08:15.759Z,83.19
2018-09-14T04:10:44.196Z,83.87
2018-09-14T04:13:12.647Z,84.29
2018-09-14T04:15:41.120Z,84.15
2018-09-14T04:18:09.539Z,83.41
2018-09-14T04:20:38.043Z,83.49
2018-09-14T04:23:06.715Z,83.60
2018-09-14T04:25:35.278Z,84.31
2018-09-14T04:28:03.758Z,84.35
2018-09-14T04:30:32.560Z,83.35
2018-09-14T04:33:01.071Z,83.00
2018-09-14T04:35:29.550Z,83.10
2018-09-14T04:37:58.249Z,83.51
2018-09-14T04:40:26.733Z,83.67
2018-09-14T04:42:55.275Z,82.77
2018-09-14T04:45:24.019Z,84.11
2018-09-14T04:47:52.516Z,83.75
2018-09-14T04:50:20.963Z,84.01
2018-09-14T04:52:49.555Z,84.96
2018-09-14T04:55:17.968Z,84.52
2018-09-14T04:57:46.671Z,85.56
2018-09-14T05:00:15.210Z,85.15
2018-09-14T05:02:43.631Z,85.71
2018-09-14T05:05:12.175Z,85.11
2018-09-14T05:07:40.702Z,86.21
2018-09-14T05:10:09.195Z,85.94
2018-09-14T05:12:37.647Z,85.82
2018-09-14T05:15:06.411Z,85.13
2018-09-14T05:17:35.126Z,85.29
2018-09-14T05:20:03.659Z,85.36
2018-09-14T05:22:32.181Z,84.83
2018-09-14T05:25:00.735Z,85.19
2018-09-14T05:27:29.132Z,85.85
2018-09-14T05:29:57.647Z,84.85
2018-09-14T05:32:26.122Z,84.53
2018-09-14T05:34:54.630Z,85.40
2018-09-14T05:37:23.374Z,85.12
2018-09-14T05:39:51.903Z,85.74
2018-09-14T05:42:20.424Z,84.57
2018-09-14T05:44:49.055Z,85.06
2018-09-14T05:47:17.594Z,84.92
2018-09-14T05:49:46.046Z,84.41
2018-09-14T05:52:14.683Z,84.32
2018-09-14T05:54:43.084Z,84.81
2018-09-14T05:57:11.553Z,85.32
2018-09-14T05:59:40.102Z,85.23
2018-09-14T06:02:08.555Z,84.98
2018-09-14T06:04:37.063Z,85.72
2018-09-14T06:07:05.613Z,85.99
2018-09-14T06:09:34.201Z,85.61
2018-09-14T06:12:02.647Z,84.82
2018-09-14T06:14:31.335Z,86.03
2018-09-14T06:16:59.857Z,86.40
2018-09-14T06:19:28.348Z,87.25
2018-09-14T06:21:56.950Z,86.72
2018-09-14T06:24:25.411Z,86.25
2018-09-14T06:26:53.923Z,84.92
2018-09-14T06:29:22.451Z,84.73
2018-09-14T06:31:51.025Z,84.14
2018-09-14T06:34:19.479Z,83.25
2018-09-14T06:36:48.162Z,82.33
2018-09-14T06:39:16.679Z,81.61
2018-09-14T06:41:45.179Z,82.65
2018-09-14T06:44:13.639Z,82.54
2018-09-14T06:46:42.178Z,81.88
2018-09-14T06:49:10.651Z,81.31
2018-09-14T06:51:39.831Z,80.78
2018-09-14T06:54:08.922Z,80.95
2018-09-14T06:56:37.403Z,79.84
2018-09-14T06:59:06.344Z,77.62
2018-09-14T07:01:35.007Z,77.44
2018-09-14T07:04:03.480Z,77.16
2018-09-14T07:06:32.146Z,76.84
2018-09-14T07:09:01.587Z,77.33
2018-09-14T07:11:30.059Z,75.73
2018-09-14T07:13:58.603Z,76.61
2018-09-14T07:16:27.187Z,77.19
2018-09-14T07:18:55.758Z,76.77
2018-09-14T07:21:24.418Z,76.97
2018-09-14T07:23:52.846Z,76.39
2018-09-14T07:26:21.275Z,76.43
2018-09-14T07:28:50.213Z,72.85
2018-09-14T07:31:19.110Z,73.33
2018-09-14T07:33:47.666Z,72.83
2018-09-14T07:36:16.215Z,73.72
2018-09-14T07:38:44.764Z,74.11
2018-09-14T07:41:13.232Z,72.99
2018-09-14T07:43:41.833Z,73.30
2018-09-14T07:46:10.314Z,73.02
2018-09-14T07:48:38.814Z,73.24
2018-09-14T07:51:07.555Z,71.83
2018-09-14T07:53:36.027Z,71.89
2018-09-14T07:56:04.482Z,71.31
2018-09-14T07:58:33.051Z,71.75
2018-09-14T08:01:01.811Z,72.32
2018-09-14T08:03:30.423Z,74.34
2018-09-14T08:05:59.199Z,73.19
2018-09-14T08:08:27.711Z,73.83
2018-09-14T08:10:56.159Z,74.52
2018-09-14T08:13:24.937Z,73.67
2018-09-14T08:15:53.503Z,73.51
2018-09-14T08:18:22.143Z,73.16
2018-09-14T08:20:50.841Z,73.13
2018-09-14T08:23:19.412Z,70.29
2018-09-14T08:25:47.827Z,70.59
2018-09-14T08:28:16.268Z,69.36
2018-09-14T08:30:44.783Z,71.46
2018-09-14T08:33:13.242Z,70.42
2018-09-14T08:35:41.910Z,71.65
2018-09-14T08:38:10.419Z,71.33
2018-09-14T08:40:38.871Z,70.78
2018-09-14T08:43:07.440Z,68.43
2018-09-14T08:45:35.941Z,68.20
2018-09-14T08:48:04.606Z,68.18
2018-09-14T08:50:32.926Z,67.87
2018-09-14T08:53:01.395Z,69.01
2018-09-14T08:55:29.877Z,69.65
2018-09-14T08:57:58.487Z,68.98
2018-09-14T09:00:27.007Z,70.02
2018-09-14T09:02:55.822Z,68.60
2018-09-14T09:05:25.390Z,68.52
2018-09-14T09:07:53.926Z,67.64
2018-09-14T09:10:22.394Z,69.08
2018-09-14T09:12:51.051Z,67.77
2018-09-14T09:15:19.600Z,68.72
2018-09-14T09:17:48.264Z,68.33
2018-09-14T09:20:16.691Z,68.03
2018-09-14T09:22:45.186Z,66.85
2018-09-14T09:25:13.688Z,65.31
2018-09-14T09:27:43.095Z,65.54
2018-09-14T09:30:11.776Z,64.93
2018-09-14T09:32:40.286Z,63.79
2018-09-14T09:35:08.984Z,62.84
2018-09-14T09:37:37.490Z,63.62
2018-09-14T09:40:06.026Z,63.30
2018-09-14T09:42:35.033Z,61.62
2018-09-14T09:45:03.619Z,61.86
2018-09-14T09:47:32.147Z,60.96
2018-09-14T09:50:00.702Z,62.47
2018-09-14T09:52:29.207Z,61.42
2018-09-14T09:54:57.722Z,60.49
2018-09-14T09:57:26.251Z,60.57
2018-09-14T09:59:54.734Z,59.48
2018-09-14T10:02:28.867Z,59.35
2018-09-14T10:05:02.542Z,59.25
2018-09-14T10:07:31.005Z,58.91
2018-09-14T10:09:59.496Z,60.12
2018-09-14T10:12:27.967Z,57.95
2018-09-14T10:14:56.676Z,56.67
2018-09-14T10:17:25.037Z,57.46
2018-09-14T10:19:53.814Z,57.22
2018-09-14T10:22:22.255Z,57.36
2018-09-14T10:24:50.722Z,57.47
2018-09-14T10:27:19.202Z,56.40
2018-09-14T10:29:47.729Z,56.84
2018-09-14T10:32:16.190Z,56.97
2018-09-14T10:34:44.643Z,56.22
2018-09-14T10:37:13.267Z,56.36
2018-09-14T10:39:41.789Z,57.25
2018-09-14T10:42:10.335Z,55.69
2018-09-14T10:44:38.767Z,56.51
2018-09-14T10:47:07.311Z,55.91
2018-09-14T10:49:35.771Z,54.11
2018-09-14T10:52:04.290Z,55.42
2018-09-14T10:54:33.162Z,54.81
2018-09-14T10:57:01.663Z,54.93
2018-09-14T10:59:30.183Z,55.74
2018-09-14T11:01:58.638Z,55.91
2018-09-14T11:04:27.205Z,54.74
2018-09-14T11:06:55.873Z,54.32
2018-09-14T11:09:24.244Z,53.21
2018-09-14T11:11:52.748Z,53.36
2018-09-14T11:14:21.378Z,53.42
2018-09-14T11:16:49.814Z,53.29
2018-09-14T11:19:18.312Z,52.83
2018-09-14T11:21:46.815Z,53.73
2018-09-14T11:24:15.270Z,52.81
2018-09-14T11:26:43.927Z,54.23
2018-09-14T11:29:12.392Z,52.68
2018-09-14T11:31:40.846Z,52.55
2018-09-14T11:34:09.367Z,50.62
2018-09-14T11:36:37.877Z,52.46
2018-09-14T11:39:08.655Z,52.38
2018-09-14T11:41:37.206Z,52.25
2018-09-14T11:44:05.727Z,52.56
2018-09-14T11:46:34.456Z,51.10
2018-09-14T11:49:03.055Z,49.45
2018-09-14T11:51:31.477Z,48.58
2018-09-14T11:54:00.123Z,50.20
2018-09-14T11:56:28.750Z,49.27
2018-09-14T11:58:57.188Z,50.64
2018-09-14T12:01:25.784Z,50.84
2018-09-14T12:03:54.322Z,49.85
2018-09-14T12:06:22.798Z,50.25
2018-09-14T12:08:51.224Z,50.13
2018-09-14T12:11:20.038Z,50.66
2018-09-14T12:13:48.585Z,50.85
2018-09-14T12:16:16.959Z,50.99
2018-09-14T12:18:45.822Z,52.47
2018-09-14T12:21:14.326Z,51.70
2018-09-14T12:23:42.730Z,52.48
2018-09-14T12:26:11.230Z,51.80
2018-09-14T12:28:39.706Z,50.72
2018-09-14T12:31:08.119Z,50.34
2018-09-14T12:33:36.600Z,51.06
2018-09-14T12:36:05.628Z,50.52
2018-09-14T12:38:34.031Z,51.14
2018-09-14T12:41:02.509Z,51.47
2018-09-14T12:43:30.978Z,49.48
2018-09-14T12:45:59.506Z,51.00
2018-09-14T12:48:28.143Z,48.37
2018-09-14T12:50:56.571Z,48.39
2018-09-14T12:53:24.998Z,49.99
2018-09-14T12:55:53.586Z,50.54
2018-09-14T12:58:21.999Z,50.90
2018-09-14T13:00:50.447Z,48.56
2018-09-14T13:03:19.115Z,49.65
2018-09-14T13:05:47.610Z,49.02
2018-09-14T13:08:16.043Z,49.05
2018-09-14T13:10:44.506Z,50.02
2018-09-14T13:13:12.972Z,49.04
2018-09-14T13:15:41.414Z,49.01
2018-09-14T13:18:09.843Z,49.44
2018-09-14T13:20:38.328Z,49.22
2018-09-14T13:23:06.810Z,49.92
2018-09-14T13:25:35.407Z,50.61
2018-09-14T13:28:04.649Z,49.59
2018-09-14T13:30:33.162Z,50.48
2018-09-14T13:33:01.755Z,49.98
2018-09-14T13:35:30.208Z,50.00
2018-09-14T13:37:58.698Z,50.25
2018-09-14T13:40:27.550Z,50.68
2018-09-14T13:42:56.067Z,51.37
2018-09-14T13:45:24.582Z,51.87
2018-09-14T13:47:53.232Z,50.69
2018-09-14T13:50:21.651Z,51.41
2018-09-14T13:52:50.526Z,51.31
2018-09-14T13:55:19.567Z,49.46
2018-09-14T13:57:48.083Z,49.82
2018-09-14T14:00:16.674Z,51.11
2018-09-14T14:02:45.519Z,50.57
2018-09-14T14:05:13.999Z,50.55
2018-09-14T14:07:42.452Z,48.93
2018-09-14T14:10:11.270Z,48.70
2018-09-14T14:12:39.775Z,50.75
2018-09-14T14:15:08.196Z,50.42
2018-09-14T14:17:37.062Z,49.43
2018-09-14T14:20:05.536Z,49.97
2018-09-14T14:22:34.027Z,50.59
2018-09-14T14:25:02.651Z,50.18
2018-09-14T14:27:31.115Z,50.54
2018-09-14T14:29:59.651Z,50.29
2018-09-14T14:32:28.138Z,49.15
2018-09-14T14:34:56.686Z,50.18
2018-09-14T14:37:25.209Z,49.63
2018-09-14T14:39:53.671Z,50.54
2018-09-14T14:42:22.188Z,51.56
2018-09-14T14:44:50.680Z,51.19
2018-09-14T14:47:19.190Z,51.28
2018-09-14T14:49:47.648Z,50.26
2018-09-14T14:52:16.076Z,50.57
2018-09-14T14:54:44.923Z,50.01
2018-09-14T14:57:13.347Z,50.90
2018-09-14T14:59:41.842Z,50.29
2018-09-14T15:02:10.391Z,48.35
2018-09-14T15:04:38.783Z,48.40
2018-09-14T15:07:07.386Z,50.05
2018-09-14T15:09:35.887Z,51.20
2018-09-14T15:12:04.398Z,49.28
2018-09-14T15:14:32.902Z,49.62
2018-09-14T15:17:01.699Z,49.27
2018-09-14T15:19:30.296Z,49.71
2018-09-14T15:21:58.830Z,49.82
2018-09-14T15:24:27.366Z,51.22
2018-09-14T15:26:55.988Z,50.66
2018-09-14T15:29:24.426Z,50.99
2018-09-14T15:31:53.063Z,50.51
2018-09-14T15:34:21.494Z,50.28
2018-09-14T15:36:49.976Z,52.12
2018-09-14T15:39:18.522Z,50.55
2018-09-14T15:41:47.040Z,50.76
2018-09-14T15:44:15.470Z,51.48
2018-09-14T15:46:43.990Z,50.54
2018-09-14T15:49:12.538Z,50.10
2018-09-14T15:51:40.963Z,51.19
2018-09-14T15:54:09.678Z,50.97
2018-09-14T15:56:38.077Z,52.79
2018-09-14T15:59:06.535Z,50.66
2018-09-14T16:01:35.072Z,49.76
2018-09-14T16:04:03.688Z,51.48
2018-09-14T16:06:32.230Z,51.29
2018-09-14T16:09:01.022Z,50.88
2018-09-14T16:11:29.487Z,50.44
2018-09-14T16:13:57.981Z,51.46
2018-09-14T16:16:26.499Z,51.94
2018-09-14T16:18:55.042Z,51.94
2018-09-14T16:21:23.466Z,50.42
2018-09-14T16:23:52.087Z,50.74
2018-09-14T16:26:20.546Z,49.55
2018-09-14T16:28:49.000Z,50.83
2018-09-14T16:31:17.531Z,51.06
2018-09-14T16:33:46.046Z,50.92
2018-09-14T16:36:14.650Z,50.44
2018-09-14T16:38:43.099Z,50.04
2018-09-14T16:41:11.571Z,51.11
2018-09-14T16:43:40.028Z,51.19
2018-09-14T16:46:08.536Z,51.00
2018-09-14T16:48:37.039Z,50.41
2018-09-14T16:51:05.530Z,50.87
2018-09-14T16:53:34.016Z,50.15
2018-09-14T16:56:02.475Z,50.52
2018-09-14T16:58:30.945Z,51.18
2018-09-14T17:00:59.562Z,51.44
2018-09-14T17:03:28.599Z,51.65
2018-09-14T17:05:57.312Z,51.89
2018-09-14T17:08:25.871Z,51.18
2018-09-14T17:10:54.496Z,52.27
2018-09-14T17:13:22.910Z,51.74
2018-09-14T17:15:51.835Z,52.53
2018-09-14T17:18:20.255Z,51.83
2018-09-14T17:20:48.750Z,53.38
2018-09-14T17:23:17.315Z,53.27
2018-09-14T17:25:45.855Z,53.36
2018-09-14T17:28:14.327Z,53.70
2018-09-14T17:30:42.779Z,54.40
2018-09-14T17:33:11.222Z,54.38
2018-09-14T17:35:39.769Z,54.20
2018-09-14T17:38:08.588Z,55.10
2018-09-14T17:40:37.026Z,55.52
2018-09-14T17:43:05.533Z,53.66
2018-09-14T17:45:33.951Z,53.97
2018-09-14T17:48:02.496Z,54.65
2018-09-14T17:50:31.001Z,55.64
2018-09-14T17:52:59.576Z,55.67
2018-09-14T17:55:28.088Z,55.60
2018-09-14T17:57:56.607Z,56.30
2018-09-14T18:00:25.231Z,55.60
2018-09-14T18:02:53.777Z,55.74
2018-09-14T18:05:22.442Z,55.06
2018-09-14T18:07:50.903Z,55.42
2018-09-14T18:10:19.323Z,55.95
2018-09-14T18:12:47.968Z,55.47
2018-09-14T18:15:16.455Z,54.97
2018-09-14T18:17:44.917Z,56.22
2018-09-14T18:20:13.446Z,57.45
2018-09-14T18:22:42.096Z,57.72
2018-09-14T18:25:10.661Z,57.99
2018-09-14T18:27:39.225Z,57.90
2018-09-14T18:30:08.475Z,58.73
2018-09-14T18:32:37.288Z,59.23
2018-09-14T18:35:06.287Z,58.39
2018-09-14T18:37:35.202Z,58.82
2018-09-14T18:40:03.814Z,59.54
2018-09-14T18:42:32.342Z,59.99
2018-09-14T18:45:00.871Z,59.70
2018-09-14T18:47:29.376Z,58.62
2018-09-14T18:49:57.970Z,58.85
2018-09-14T18:52:26.963Z,59.65
2018-09-14T18:54:55.526Z,60.71
2018-09-14T18:57:24.055Z,60.96
2018-09-14T18:59:52.624Z,61.03
2018-09-14T19:02:21.141Z,61.57
2018-09-14T19:04:49.617Z,61.14
2018-09-14T19:07:18.285Z,61.42
2018-09-14T19:09:47.112Z,61.09
2018-09-14T19:12:15.616Z,62.82
2018-09-14T19:14:44.555Z,63.15
2018-09-14T19:17:13.593Z,64.40
2018-09-14T19:19:42.653Z,65.43
2018-09-14T19:22:11.976Z,64.73
2018-09-14T19:24:41.272Z,65.24
2018-09-14T19:27:10.872Z,65.93
2018-09-14T19:29:39.918Z,65.85
2018-09-14T19:32:09.001Z,66.81
2018-09-14T19:34:37.990Z,67.30
2018-09-14T19:37:07.326Z,67.43
2018-09-14T19:39:36.304Z,67.34
2018-09-14T19:42:05.546Z,67.61
2018-09-14T19:44:36.215Z,68.28
2018-09-14T19:47:05.337Z,67.55
2018-09-14T19:49:34.373Z,68.45
2018-09-14T19:52:03.438Z,68.76
2018-09-14T19:54:32.647Z,70.03
2018-09-14T19:57:01.883Z,69.98
2018-09-14T19:59:31.176Z,70.30
2018-09-14T20:02:00.027Z,70.03
2018-09-14T20:04:29.426Z,71.17
2018-09-14T20:06:58.557Z,70.53
2018-09-14T20:09:27.503Z,70.95
2018-09-14T20:11:56.526Z,70.83
2018-09-14T20:14:25.471Z,70.76
2018-09-14T20:16:54.412Z,70.08
2018-09-14T20:19:23.277Z,70.81
2018-09-14T20:21:52.041Z,69.90
2018-09-14T20:24:21.761Z,70.53
2018-09-14T20:26:50.257Z,71.55
2018-09-14T20:29:18.833Z,71.01
2018-09-14T20:31:47.483Z,71.47
2018-09-14T20:34:16.128Z,70.79
2018-09-14T20:36:44.723Z,68.41
2018-09-14T20:39:13.755Z,67.98
2018-09-14T20:41:42.275Z,67.81
2018-09-14T20:44:10.992Z,68.05
2018-09-14T20:46:40.528Z,67.36
2018-09-14T20:49:08.951Z,66.82
2018-09-14T20:51:37.707Z,65.88
2018-09-14T20:54:06.349Z,66.43
2018-09-14T20:56:34.933Z,67.98
2018-09-14T20:59:03.747Z,66.50
2018-09-14T21:01:32.173Z,67.61
2018-09-14T21:04:00.606Z,68.06
2018-09-14T21:06:29.108Z,69.83
2018-09-14T21:08:57.586Z,69.66
2018-09-14T21:11:26.041Z,69.80
2018-09-14T21:13:54.556Z,70.41
2018-09-14T21:16:22.987Z,71.29
2018-09-14T21:18:51.415Z,71.15
2018-09-14T21:21:20.043Z,71.85
2018-09-14T21:23:48.538Z,70.28
2018-09-14T21:26:17.061Z,70.66
2018-09-14T21:28:45.526Z,70.18
2018-09-14T21:31:13.986Z,70.49
2018-09-14T21:33:42.385Z,70.13
2018-09-14T21:36:11.104Z,71.06
2018-09-14T21:38:39.494Z,68.83
2018-09-14T21:41:07.910Z,68.56
2018-09-14T21:43:36.533Z,68.88
2018-09-14T21:46:05.063Z,70.94
2018-09-14T21:48:33.563Z,70.44
2018-09-14T21:51:02.006Z,70.27
2018-09-14T21:53:30.563Z,69.31
2018-09-14T21:55:59.083Z,69.35
2018-09-14T21:58:27.550Z,69.63
2018-09-14T22:01:01.275Z,70.24
2018-09-14T22:03:29.966Z,70.12
2018-09-14T22:05:58.459Z,70.93
2018-09-14T22:08:26.919Z,71.18
2018-09-14T22:10:55.446Z,71.20
2018-09-14T22:13:23.948Z,72.36
2018-09-14T22:15:52.436Z,71.47
2018-09-14T22:18:21.178Z,71.16
2018-09-14T22:20:49.602Z,72.23
2018-09-14T22:23:18.110Z,72.47
2018-09-14T22:25:46.660Z,72.78
2018-09-14T22:28:15.107Z,73.74
2018-09-14T22:30:43.523Z,73.88
2018-09-14T22:33:12.018Z,74.32
2018-09-14T22:35:40.462Z,73.97
2018-09-14T22:38:09.080Z,73.14
2018-09-14T22:40:37.858Z,73.44
2018-09-14T22:43:06.286Z,75.35
2018-09-14T22:45:34.746Z,75.51
2018-09-14T22:48:03.187Z,76.03
2018-09-14T22:50:31.606Z,76.12
2018-09-14T22:53:00.038Z,76.18
2018-09-14T22:55:28.611Z,76.39
2018-09-14T22:57:57.127Z,76.18
2018-09-14T23:01:31.892Z,74.83
2018-09-14T23:04:00.342Z,76.30
2018-09-14T23:06:28.846Z,76.72
2018-09-14T23:08:57.314Z,76.92
2018-09-14T23:11:25.735Z,77.87
2018-09-14T23:13:54.243Z,78.09
2018-09-14T23:18:51.143Z,76.84
2018-09-14T23:21:19.699Z,78.23
2018-09-14T23:23:48.391Z,78.43
2018-09-14T23:26:20.391Z,78.43
2018-09-14T23:28:48.907Z,78.06
2018-09-14T23:31:17.382Z,78.57
2018-09-14T23:33:45.794Z,78.87
2018-09-14T23:36:14.349Z,79.07
2018-09-14T23:38:42.851Z,79.26
2018-09-14T23:41:11.244Z,78.76
2018-09-14T23:43:39.758Z,79.22
2018-09-14T23:46:08.262Z,78.76
2018-09-14T23:48:36.747Z,78.75
2018-09-14T23:51:05.235Z,78.68
2018-09-14T23:53:33.686Z,79.02
2018-09-14T23:56:02.232Z,80.00
2018-09-14T23:58:31.038Z,80.01
